Time;durP1;ratioP1;P1;durP2;ratioP2;P2;SDS_P1;SDS_P2;PMS_P1;PMS_P2;Temp;Humidity;BMP_temperature;BMP_pressure;BME280_temperature;BME280_humidity;BME280_pressure;Samples;Min_cycle;Max_cycle;Signal;HPM_P1;HPM_P2
2023/05/12 00:01:46;;;;;;;4.77;4.37;;;12.70;1.00;;;;;;4998297;28;20434;-41
2023/05/12 00:04:11;;;;;;;4.43;4.00;;;12.70;20.50;;;;;;4998796;28;20180;-41
2023/05/12 00:06:37;;;;;;;5.50;4.97;;;12.70;65.70;;;;;;4997223;28;20176;-40
2023/05/12 00:09:03;;;;;;;4.60;4.20;;;12.80;1.00;;;;;;4998023;28;20186;-40
2023/05/12 00:11:28;;;;;;;5.60;5.10;;;12.80;1.00;;;;;;4997553;28;20250;-40
2023/05/12 00:13:54;;;;;;;6.60;6.00;;;12.80;1.00;;;;;;4981341;28;20263;-40
2023/05/12 00:16:20;;;;;;;6.30;5.70;;;12.80;1.00;;;;;;4999167;28;20238;-41
2023/05/12 00:18:46;;;;;;;6.07;5.57;;;12.80;1.00;;;;;;4999657;28;20211;-39
2023/05/12 00:21:11;;;;;;;6.30;5.80;;;12.80;1.00;;;;;;4999474;28;20183;-39
2023/05/12 00:23:37;;;;;;;5.67;5.03;;;12.80;1.00;;;;;;4999289;28;20618;-42
2023/05/12 00:26:03;;;;;;;5.60;5.10;;;12.80;1.00;;;;;;4999603;28;20554;-42
2023/05/12 00:28:29;;;;;;;6.90;5.47;;;12.80;1.00;;;;;;4998855;28;20506;-41
2023/05/12 00:30:56;;;;;;;6.60;5.90;;;12.80;1.00;;;;;;4998170;28;20544;-41
2023/05/12 00:33:21;;;;;;;7.17;6.07;;;12.80;1.00;;;;;;4980664;28;20438;-40
2023/05/12 00:35:47;;;;;;;7.10;6.40;;;12.80;1.00;;;;;;4997014;28;20422;-41
2023/05/12 00:38:13;;;;;;;6.40;5.80;;;12.80;19.60;;;;;;4996705;28;20506;-40
2023/05/12 00:40:40;;;;;;;6.03;5.43;;;12.70;12.00;;;;;;4996507;28;20180;-42
2023/05/12 00:43:05;;;;;;;6.30;5.80;;;12.70;1.00;;;;;;4998072;28;20813;-40
2023/05/12 00:45:31;;;;;;;6.33;5.83;;;12.70;1.00;;;;;;4998841;28;20419;-42
2023/05/12 00:47:57;;;;;;;6.43;5.87;;;12.70;7.10;;;;;;4981674;28;20570;-42
2023/05/12 00:50:23;;;;;;;6.63;6.03;;;12.70;1.00;;;;;;4999577;28;20172;-41
2023/05/12 00:52:49;;;;;;;7.47;6.87;;;12.70;1.00;;;;;;4985750;28;20487;-41
2023/05/12 00:55:15;;;;;;;8.03;7.33;;;12.50;1.00;;;;;;4998834;28;20452;-41
2023/05/12 00:57:42;;;;;;;7.93;7.23;;;12.50;58.20;;;;;;4998539;28;20431;-42
2023/05/12 01:00:08;;;;;;;8.33;7.50;;;12.40;99.90;;;;;;4999559;28;20875;-40
2023/05/12 01:02:35;;;;;;;8.63;7.87;;;12.30;99.90;;;;;;4998092;28;20423;-42
2023/05/12 01:08:23;;;;;;;8.43;7.73;;;12.10;99.90;;;;;;4998359;28;20401;-41
2023/05/12 01:10:49;;;;;;;8.93;8.13;;;12.00;1.00;;;;;;4996273;28;20432;-41
2023/05/12 01:13:15;;;;;;;8.60;7.90;;;11.90;1.00;;;;;;4997940;28;20439;-41
2023/05/12 01:15:44;;;;;;;10.50;9.50;;;11.90;1.00;;;;;;4997426;28;20765;-41
2023/05/12 01:18:10;;;;;;;9.00;8.20;;;11.80;1.00;;;;;;4998571;28;20422;-40
2023/05/12 01:20:36;;;;;;;10.40;9.40;;;11.80;1.00;;;;;;4996876;28;20429;-40
2023/05/12 01:23:03;;;;;;;10.23;9.23;;;11.80;1.00;;;;;;4997880;28;20752;-40
2023/05/12 01:25:31;;;;;;;10.50;9.57;;;11.70;1.00;;;;;;4996945;28;20271;-41
2023/05/12 01:27:56;;;;;;;11.23;10.13;;;11.70;1.00;;;;;;4995548;28;20415;-41
2023/05/12 01:30:23;;;;;;;10.43;9.43;;;11.70;17.20;;;;;;4979418;28;20476;-41
2023/05/12 01:32:50;;;;;;;10.80;9.90;;;11.70;24.90;;;;;;4997302;28;20203;-40
2023/05/12 01:35:15;;;;;;;10.50;9.60;;;11.70;29.20;;;;;;4996492;28;20415;-41
2023/05/12 01:37:41;;;;;;;9.77;8.83;;;11.60;32.80;;;;;;4997607;28;20570;-40
2023/05/12 01:40:07;;;;;;;10.37;9.47;;;11.60;59.50;;;;;;4997917;28;20546;-40
2023/05/12 01:42:33;;;;;;;9.07;8.37;;;11.60;95.80;;;;;;4998630;28;20471;-40
2023/05/12 01:44:58;;;;;;;10.67;9.67;;;11.60;99.90;;;;;;4998768;28;20528;-42
2023/05/12 01:47:24;;;;;;;10.63;9.63;;;11.60;99.90;;;;;;4998810;28;20207;-40
2023/05/12 01:49:50;;;;;;;10.57;9.57;;;11.50;99.90;;;;;;4998658;28;20179;-39
2023/05/12 01:52:16;;;;;;;11.00;9.90;;;11.50;99.90;;;;;;4998679;28;20241;-40
2023/05/12 01:54:41;;;;;;;9.93;9.00;;;11.50;99.90;;;;;;4998099;28;20184;-39
2023/05/12 01:57:07;;;;;;;10.83;9.73;;;11.50;99.90;;;;;;4998590;28;20439;-40
2023/05/12 01:59:33;;;;;;;10.60;9.60;;;11.50;99.90;;;;;;4998322;28;20216;-39
2023/05/12 02:01:58;;;;;;;11.13;10.13;;;11.50;99.90;;;;;;4998211;28;20278;-41
2023/05/12 02:04:24;;;;;;;10.67;9.70;;;11.40;99.90;;;;;;4997769;28;20176;-40
2023/05/12 02:06:50;;;;;;;10.60;9.60;;;11.40;99.90;;;;;;4998046;28;20199;-40
2023/05/12 02:09:16;;;;;;;11.80;10.60;;;11.40;99.90;;;;;;4997992;28;20267;-41
2023/05/12 02:11:42;;;;;;;10.60;9.60;;;11.40;99.90;;;;;;4997764;28;20798;-40
2023/05/12 02:14:07;;;;;;;11.60;10.37;;;11.30;99.90;;;;;;4997325;28;20179;-41
2023/05/12 02:16:33;;;;;;;11.30;10.20;;;11.30;99.90;;;;;;4997825;28;20184;-41
2023/05/12 02:18:59;;;;;;;11.93;10.73;;;11.30;99.90;;;;;;4998055;28;20171;-40
2023/05/12 02:21:25;;;;;;;11.37;10.33;;;11.30;99.90;;;;;;4997914;28;20176;-41
2023/05/12 02:23:50;;;;;;;11.80;10.70;;;11.30;99.90;;;;;;4997689;28;20176;-38
2023/05/12 02:26:17;;;;;;;12.17;11.07;;;11.30;99.90;;;;;;4998197;28;20726;-41
2023/05/12 02:28:43;;;;;;;12.30;11.20;;;11.30;99.90;;;;;;4998286;28;20179;-40
2023/05/12 02:31:09;;;;;;;13.00;11.73;;;11.30;99.90;;;;;;4996587;28;20476;-41
2023/05/12 02:33:35;;;;;;;12.90;11.70;;;11.30;99.90;;;;;;4997020;28;20222;-42
2023/05/12 02:36:01;;;;;;;11.57;10.47;;;11.30;99.90;;;;;;4997779;28;20271;-41
2023/05/12 02:38:26;;;;;;;14.70;13.30;;;11.30;99.90;;;;;;4997368;28;20841;-40
2023/05/12 02:40:52;;;;;;;14.17;12.70;;;11.30;99.90;;;;;;4997823;28;20223;-40
2023/05/12 02:43:18;;;;;;;15.07;13.47;;;11.30;99.90;;;;;;4997933;28;20438;-40
2023/05/12 02:45:44;;;;;;;14.30;12.90;;;11.30;99.90;;;;;;4997958;28;20517;-41
2023/05/12 02:48:10;;;;;;;14.73;13.23;;;11.20;99.90;;;;;;4997671;28;20632;-40
2023/05/12 02:50:35;;;;;;;14.03;12.70;;;11.20;99.90;;;;;;4997511;28;20511;-40
2023/05/12 02:53:01;;;;;;;14.57;13.17;;;11.20;99.90;;;;;;4996844;28;20486;-39
2023/05/12 02:55:28;;;;;;;16.43;14.30;;;11.20;99.90;;;;;;4995984;28;20662;-42
2023/05/12 02:57:54;;;;;;;16.23;13.63;;;11.20;99.90;;;;;;4996246;28;20438;-40
2023/05/12 03:00:20;;;;;;;15.07;13.57;;;11.20;99.90;;;;;;4997125;28;20431;-39
2023/05/12 03:02:46;;;;;;;16.77;15.17;;;11.20;99.90;;;;;;4980314;28;20523;-40
2023/05/12 03:05:12;;;;;;;16.20;14.50;;;11.20;99.90;;;;;;4996608;28;20729;-41
2023/05/12 03:07:38;;;;;;;16.87;15.27;;;11.20;99.90;;;;;;4995766;28;20188;-40
2023/05/12 03:10:04;;;;;;;18.30;16.40;;;11.20;99.90;;;;;;4995514;28;20433;-41
2023/05/12 03:12:30;;;;;;;17.70;16.00;;;11.20;99.90;;;;;;4995836;28;20475;-40
2023/05/12 03:14:56;;;;;;;15.13;13.60;;;11.10;99.90;;;;;;4996293;28;20429;-39
2023/05/12 03:17:21;;;;;;;15.43;13.87;;;11.10;99.90;;;;;;4996565;28;20415;-39
2023/05/12 03:19:47;;;;;;;14.97;13.30;;;11.10;99.90;;;;;;4996571;28;20429;-41
2023/05/12 03:22:13;;;;;;;15.87;14.27;;;11.10;99.90;;;;;;4980601;28;20187;-40
2023/05/12 03:24:39;;;;;;;16.57;14.87;;;11.10;99.90;;;;;;4996503;28;20263;-41
2023/05/12 03:27:04;;;;;;;15.57;13.97;;;11.10;99.90;;;;;;4996701;28;20514;-41
2023/05/12 03:29:30;;;;;;;16.00;14.40;;;11.10;99.90;;;;;;4995076;28;20570;-41
2023/05/12 03:31:56;;;;;;;14.90;13.30;;;11.10;99.90;;;;;;4996012;28;20223;-40
2023/05/12 03:34:22;;;;;;;14.90;12.93;;;11.10;99.90;;;;;;4997361;28;20179;-40
2023/05/12 03:36:47;;;;;;;15.20;13.60;;;11.10;1.00;;;;;;4996979;28;20710;-43
2023/05/12 03:39:13;;;;;;;14.57;13.00;;;11.00;1.00;;;;;;4996473;28;20206;-40
2023/05/12 03:41:39;;;;;;;14.30;12.90;;;11.10;1.00;;;;;;4994214;28;20278;-40
2023/05/12 03:44:07;;;;;;;15.00;13.40;;;11.10;1.00;;;;;;4994658;28;20183;-40
2023/05/12 03:46:32;;;;;;;14.43;12.93;;;11.00;1.00;;;;;;4977550;28;20186;-39
2023/05/12 03:48:58;;;;;;;14.00;12.57;;;11.10;1.00;;;;;;4994985;28;20431;-40
2023/05/12 03:51:24;;;;;;;14.77;13.27;;;11.00;1.00;;;;;;4993636;28;20540;-41
2023/05/12 03:53:50;;;;;;;15.07;13.43;;;11.10;1.00;;;;;;4993709;28;20270;-41
2023/05/12 03:56:16;;;;;;;15.10;13.50;;;11.00;1.00;;;;;;4994614;28;20462;-41
2023/05/12 03:58:42;;;;;;;13.63;12.33;;;11.00;99.90;;;;;;4994590;28;20453;-40
2023/05/12 04:01:08;;;;;;;14.47;13.00;;;11.00;1.00;;;;;;4994121;28;20218;-42
2023/05/12 04:03:34;;;;;;;15.77;13.03;;;11.00;1.00;;;;;;4995442;28;20526;-40
2023/05/12 04:06:00;;;;;;;15.20;13.60;;;11.00;1.00;;;;;;4993833;28;20334;-41
2023/05/12 04:08:27;;;;;;;15.93;14.33;;;11.00;1.00;;;;;;4993364;28;20180;-40
2023/05/12 04:11:00;;;;;;;15.60;13.83;;;11.00;1.00;;;;;;4992169;28;20419;-41
2023/05/12 04:13:27;;;;;;;15.33;13.70;;;11.00;1.00;;;;;;4993199;28;20419;-41
2023/05/12 04:15:59;;;;;;;14.87;13.27;;;11.00;1.00;;;;;;4993983;28;20421;-40
2023/05/12 04:18:26;;;;;;;15.00;13.43;;;11.00;1.00;;;;;;4964300;28;20440;-39
2023/05/12 04:20:52;;;;;;;15.93;14.03;;;11.10;1.00;;;;;;4997684;28;20434;-40
2023/05/12 04:23:18;;;;;;;16.03;14.33;;;11.10;1.00;;;;;;4998501;28;20415;-39
2023/05/12 04:25:44;;;;;;;16.80;15.00;;;11.10;1.00;;;;;;4999363;28;20418;-41
2023/05/12 04:28:09;;;;;;;15.17;13.67;;;11.10;1.00;;;;;;4982192;28;20187;-40
2023/05/12 04:30:38;;;;;;;15.70;14.00;;;11.20;99.90;;;;;;4998675;28;20551;-40
2023/05/12 04:33:03;;;;;;;15.33;13.73;;;11.20;99.90;;;;;;4998725;28;20652;-40
2023/05/12 04:35:29;;;;;;;17.07;15.27;;;11.20;99.90;;;;;;4998745;28;20444;-41
2023/05/12 04:37:55;;;;;;;14.47;12.97;;;11.20;99.90;;;;;;4997280;28;20191;-42
2023/05/12 04:40:21;;;;;;;15.37;13.77;;;11.30;99.90;;;;;;4978683;28;20180;-40
2023/05/12 04:42:46;;;;;;;16.27;14.53;;;11.30;99.90;;;;;;4995698;28;20172;-40
2023/05/12 04:45:12;;;;;;;16.90;15.20;;;11.30;99.90;;;;;;4996321;28;20278;-40
2023/05/12 04:47:38;;;;;;;15.83;14.40;;;11.30;99.90;;;;;;4994330;28;20414;-42
2023/05/12 04:50:04;;;;;;;14.23;12.90;;;11.40;99.90;;;;;;4961797;28;20405;-39
2023/05/12 04:52:30;;;;;;;14.70;13.30;;;11.40;99.90;;;;;;4978819;28;20251;-40
2023/05/12 04:54:56;;;;;;;16.60;15.03;;;11.40;99.90;;;;;;4994487;28;20461;-40
2023/05/12 04:57:22;;;;;;;15.83;14.23;;;11.50;99.90;;;;;;4995462;28;20526;-39
2023/05/12 04:59:47;;;;;;;15.87;14.37;;;11.50;99.90;;;;;;4992589;28;20180;-39
2023/05/12 05:02:13;;;;;;;18.40;16.50;;;11.50;99.90;;;;;;4994156;28;20424;-40
2023/05/12 05:04:39;;;;;;;16.17;14.57;;;11.50;99.90;;;;;;4993130;28;20186;-39
2023/05/12 05:07:05;;;;;;;15.13;13.30;;;11.60;99.90;;;;;;4994056;28;20176;-41
2023/05/12 05:09:30;;;;;;;14.27;12.87;;;11.60;99.90;;;;;;4994795;28;20314;-39
2023/05/12 05:11:56;;;;;;;13.17;11.97;;;11.70;99.90;;;;;;4995135;28;20706;-40
2023/05/12 05:14:22;;;;;;;12.57;11.30;;;11.70;99.90;;;;;;4995830;28;20183;-40
2023/05/12 05:16:48;;;;;;;11.90;10.80;;;11.70;99.90;;;;;;4995806;28;20187;-40
2023/05/12 05:19:14;;;;;;;13.43;11.47;;;11.70;99.90;;;;;;4995169;28;20542;-41
2023/05/12 05:21:40;;;;;;;12.80;11.60;;;11.80;99.90;;;;;;4989227;28;20455;-40
2023/05/12 05:24:06;;;;;;;12.70;11.50;;;11.90;99.90;;;;;;4978416;28;20724;-41
2023/05/12 05:26:32;;;;;;;12.03;10.83;;;11.90;99.90;;;;;;4975360;28;20428;-41
2023/05/12 05:28:58;;;;;;;13.07;11.67;;;12.00;99.90;;;;;;4981450;28;20466;-41
2023/05/12 05:31:24;;;;;;;12.27;11.13;;;12.00;99.90;;;;;;4994114;28;20884;-40
2023/05/12 05:33:50;;;;;;;11.87;10.83;;;12.00;99.90;;;;;;4994864;28;20414;-40
2023/05/12 05:36:16;;;;;;;12.23;11.13;;;12.00;99.90;;;;;;4995406;28;20479;-40
2023/05/12 05:38:41;;;;;;;11.57;10.47;;;12.10;99.90;;;;;;4994828;28;20172;-40
2023/05/12 05:41:07;;;;;;;11.57;10.47;;;12.20;80.60;;;;;;4993713;28;20258;-40
2023/05/12 05:43:33;;;;;;;13.40;12.00;;;12.30;38.40;;;;;;4995488;28;20180;-40
2023/05/12 05:45:59;;;;;;;10.47;9.50;;;12.30;1.00;;;;;;4996287;28;20183;-40
2023/05/12 05:48:25;;;;;;;11.23;10.23;;;12.40;1.00;;;;;;4996047;28;20587;-42
2023/05/12 05:50:51;;;;;;;12.17;10.90;;;12.50;1.00;;;;;;4995466;28;20415;-40
2023/05/12 05:53:18;;;;;;;11.53;10.43;;;12.50;1.00;;;;;;4994942;28;20470;-42
2023/05/12 05:55:44;;;;;;;10.80;9.70;;;12.60;1.00;;;;;;4995223;28;20415;-40
2023/05/12 05:58:10;;;;;;;9.60;8.70;;;12.70;1.00;;;;;;4993949;28;20411;-40
2023/05/12 06:00:36;;;;;;;9.27;8.47;;;12.80;1.00;;;;;;4995095;28;20555;-45
2023/05/12 06:03:03;;;;;;;9.23;8.37;;;12.80;99.90;;;;;;4995009;28;20567;-40
2023/05/12 06:05:31;;;;;;;9.53;8.63;;;12.80;99.90;;;;;;4994665;28;20584;-39
2023/05/12 06:08:01;;;;;;;9.10;8.20;;;12.80;99.90;;;;;;4992839;28;20477;-40
2023/05/12 06:10:30;;;;;;;8.97;8.17;;;12.80;99.90;;;;;;4992038;28;20833;-40
2023/05/12 06:12:56;;;;;;;8.33;7.63;;;12.90;99.90;;;;;;4994189;28;20512;-40
2023/05/12 06:15:25;;;;;;;8.50;7.70;;;13.00;28.50;;;;;;4993907;28;20447;-39
2023/05/12 06:17:51;;;;;;;7.80;7.00;;;13.10;4.10;;;;;;4976000;28;20568;-39
2023/05/12 06:20:17;;;;;;;7.50;6.80;;;13.10;1.00;;;;;;4977119;28;20457;-43
2023/05/12 06:22:43;;;;;;;7.07;6.47;;;13.20;1.00;;;;;;4991805;28;20259;-41
2023/05/12 06:25:09;;;;;;;6.63;5.87;;;13.30;99.90;;;;;;4992627;28;20427;-40
2023/05/12 06:27:35;;;;;;;7.27;5.90;;;13.40;99.90;;;;;;4990635;28;20430;-40
2023/05/12 06:30:01;;;;;;;5.60;5.10;;;13.50;99.90;;;;;;4993896;28;20678;-41
2023/05/12 06:32:26;;;;;;;7.50;6.90;;;13.60;1.00;;;;;;4993001;28;20478;-40
2023/05/12 06:34:52;;;;;;;6.13;5.53;;;13.80;99.90;;;;;;4995383;28;20415;-39
2023/05/12 06:37:18;;;;;;;6.37;5.60;;;13.80;1.00;;;;;;4997246;28;20260;-40
2023/05/12 06:39:44;;;;;;;5.13;4.60;;;13.80;1.00;;;;;;4995381;28;20175;-40
2023/05/12 06:42:10;;;;;;;6.90;5.93;;;13.90;1.00;;;;;;4995032;28;20183;-40
2023/05/12 06:44:36;;;;;;;6.00;5.40;;;14.00;1.00;;;;;;4994638;28;20317;-40
2023/05/12 06:47:02;;;;;;;5.27;4.73;;;14.00;99.90;;;;;;4994802;28;20824;-40
2023/05/12 06:49:27;;;;;;;5.70;5.20;;;14.10;99.90;;;;;;4995151;28;20489;-39
2023/05/12 06:51:53;;;;;;;5.03;4.53;;;14.20;96.30;;;;;;4992171;28;20309;-40
2023/05/12 06:54:19;;;;;;;5.83;5.33;;;14.30;99.90;;;;;;4992197;28;20298;-40
2023/05/12 06:56:45;;;;;;;7.57;6.73;;;14.40;99.90;;;;;;4991712;28;20558;-42
2023/05/12 06:59:11;;;;;;;5.27;4.77;;;14.50;99.90;;;;;;4993809;28;20322;-40
2023/05/12 07:01:37;;;;;;;5.00;4.50;;;14.70;1.00;;;;;;4990610;28;20422;-42
2023/05/12 07:04:03;;;;;;;5.83;5.33;;;14.80;99.90;;;;;;4993172;28;20422;-41
2023/05/12 07:06:30;;;;;;;5.20;4.80;;;14.90;1.00;;;;;;4994420;28;20176;-46
2023/05/12 07:08:56;;;;;;;6.63;5.87;;;14.80;1.00;;;;;;4991810;28;20435;-41
2023/05/12 07:11:22;;;;;;;5.63;5.10;;;14.80;1.00;;;;;;4992603;28;20657;-40
2023/05/12 07:13:49;;;;;;;5.37;4.30;;;14.80;1.00;;;;;;4991706;28;20258;-39
2023/05/12 07:16:15;;;;;;;4.67;4.13;;;14.90;1.00;;;;;;4990979;28;20442;-39
2023/05/12 07:18:42;;;;;;;5.27;4.77;;;15.00;1.00;;;;;;4990848;28;21002;-40
2023/05/12 07:21:08;;;;;;;6.30;5.80;;;15.20;1.00;;;;;;4990794;28;20750;-41
2023/05/12 07:23:35;;;;;;;5.57;5.00;;;15.30;1.00;;;;;;4975544;28;20689;-41
2023/05/12 07:26:02;;;;;;;5.20;4.80;;;15.50;1.00;;;;;;4993635;28;20447;-40
2023/05/12 07:28:34;;;;;;;4.80;4.33;;;15.50;18.20;;;;;;4994168;28;20721;-40
2023/05/12 07:31:01;;;;;;;5.00;4.60;;;15.80;1.00;;;;;;4976305;28;20805;-43
2023/05/12 07:33:27;;;;;;;4.53;4.13;;;15.90;99.90;;;;;;4993980;28;20419;-41
2023/05/12 07:35:53;;;;;;;5.20;4.50;;;15.90;99.90;;;;;;4994743;28;20411;-41
2023/05/12 07:38:19;;;;;;;5.90;5.40;;;16.00;99.90;;;;;;4994024;28;20433;-43
2023/05/12 07:40:45;;;;;;;5.63;5.13;;;16.00;1.00;;;;;;4992035;28;20184;-40
2023/05/12 07:43:11;;;;;;;5.60;5.10;;;16.00;21.80;;;;;;4975347;28;20171;-40
2023/05/12 07:45:36;;;;;;;4.97;4.57;;;16.10;1.00;;;;;;4994727;28;20191;-43
2023/05/12 07:48:02;;;;;;;4.60;4.20;;;16.10;1.00;;;;;;4975989;28;20415;-42
2023/05/12 07:50:28;;;;;;;5.43;4.93;;;16.10;99.90;;;;;;4993875;28;20236;-42
2023/05/12 07:52:54;;;;;;;5.00;4.60;;;16.00;1.00;;;;;;4997851;28;20297;-41
2023/05/12 07:55:21;;;;;;;9.50;4.90;;;16.00;1.00;;;;;;5000900;28;20180;-42
2023/05/12 07:57:46;;;;;;;4.47;3.60;;;16.10;1.00;;;;;;4982666;28;20422;-40
2023/05/12 08:00:13;;;;;;;4.03;3.63;;;16.00;1.00;;;;;;4983008;28;20443;-41
2023/05/12 08:02:39;;;;;;;3.70;3.40;;;16.10;1.00;;;;;;4997958;28;20234;-40
2023/05/12 08:05:06;;;;;;;4.47;4.10;;;16.10;1.00;;;;;;4996273;28;20423;-41
2023/05/12 08:07:32;;;;;;;4.23;3.83;;;16.20;1.00;;;;;;4997078;28;20431;-42
2023/05/12 08:09:58;;;;;;;3.93;3.53;;;16.40;99.90;;;;;;4979320;28;20728;-43
2023/05/12 08:12:24;;;;;;;5.93;4.43;;;16.50;99.90;;;;;;4996521;28;20470;-43
2023/05/12 08:14:49;;;;;;;4.17;3.87;;;16.80;1.00;;;;;;4996063;28;20640;-43
2023/05/12 08:17:15;;;;;;;4.50;4.10;;;17.40;99.90;;;;;;4997431;28;20203;-41
2023/05/12 08:19:41;;;;;;;4.53;4.10;;;18.00;1.00;;;;;;5000745;28;20188;-42
2023/05/12 08:22:06;;;;;;;3.73;3.43;;;18.50;1.00;;;;;;4998281;28;20254;-41
2023/05/12 08:24:32;;;;;;;4.07;3.13;;;18.80;99.90;;;;;;4996516;28;20558;-40
2023/05/12 08:26:58;;;;;;;3.87;3.10;;;18.70;99.90;;;;;;4996522;28;20192;-44
2023/05/12 08:29:23;;;;;;;3.20;2.90;;;18.50;87.50;;;;;;4997440;28;20409;-41
2023/05/12 08:31:49;;;;;;;3.30;3.00;;;18.30;99.90;;;;;;4996680;28;20449;-42
2023/05/12 08:34:15;;;;;;;4.07;3.77;;;18.20;99.90;;;;;;4997392;28;20168;-41
2023/05/12 08:36:40;;;;;;;3.67;2.77;;;18.00;99.90;;;;;;4995172;28;20194;-42
2023/05/12 08:39:09;;;;;;;3.30;2.73;;;17.90;99.90;;;;;;4996243;28;20176;-45
2023/05/12 08:41:54;;;;;;;3.37;2.53;;;17.80;99.90;;;;;;4977586;28;20196;-43
2023/05/12 08:44:20;;;;;;;3.03;2.73;;;18.00;99.90;;;;;;4977337;28;20623;-41
2023/05/12 08:46:47;;;;;;;3.47;3.17;;;18.20;99.90;;;;;;4978009;28;20794;-42
2023/05/12 08:49:16;;;;;;;2.77;2.57;;;18.40;99.90;;;;;;4978084;28;20250;-40
2023/05/12 08:51:43;;;;;;;3.67;3.37;;;18.40;99.90;;;;;;4979025;28;20533;-41
2023/05/12 08:54:11;;;;;;;3.10;2.80;;;18.30;99.90;;;;;;4996512;28;20773;-41
2023/05/12 08:56:40;;;;;;;3.47;3.17;;;18.00;86.30;;;;;;4994156;28;20521;-41
2023/05/12 08:59:07;;;;;;;2.20;2.00;;;17.80;58.00;;;;;;4994818;28;20596;-42
2023/05/12 09:01:41;;;;;;;3.30;2.40;;;17.60;94.10;;;;;;4976162;28;20434;-42
2023/05/12 09:04:07;;;;;;;3.07;2.77;;;17.50;99.90;;;;;;4995684;28;20438;-42
2023/05/12 09:06:33;;;;;;;2.90;2.60;;;17.60;99.90;;;;;;4995080;28;20493;-41
2023/05/12 09:08:59;;;;;;;3.30;2.57;;;17.60;99.90;;;;;;4995499;28;20180;-41
2023/05/12 09:11:25;;;;;;;2.10;1.90;;;17.60;99.90;;;;;;4979826;28;20211;-40
2023/05/12 09:14:05;;;;;;;3.00;2.70;;;17.60;99.90;;;;;;4997191;28;20950;-41
2023/05/12 09:16:33;;;;;;;3.50;3.20;;;17.60;99.90;;;;;;4979058;28;20175;-42
2023/05/12 09:19:01;;;;;;;4.80;3.00;;;17.40;99.90;;;;;;4978927;28;20458;-41
2023/05/12 09:21:27;;;;;;;5.40;3.13;;;17.20;99.90;;;;;;4995096;28;20840;-42
2023/05/12 09:23:57;;;;;;;3.30;3.00;;;16.90;99.90;;;;;;4994133;28;20742;-41
2023/05/12 09:26:25;;;;;;;3.23;3.03;;;16.60;99.90;;;;;;4997064;28;20557;-42
2023/05/12 09:28:53;;;;;;;2.53;2.33;;;16.30;99.90;;;;;;4996480;28;20427;-40
2023/05/12 09:31:21;;;;;;;3.13;2.80;;;16.10;99.90;;;;;;4994455;28;20455;-40
2023/05/12 09:33:47;;;;;;;2.53;2.33;;;16.10;99.90;;;;;;4994591;28;20521;-41
2023/05/12 09:36:20;;;;;;;2.53;2.33;;;16.40;99.90;;;;;;4975559;28;20501;-41
2023/05/12 09:38:57;;;;;;;1.90;1.80;;;16.70;99.90;;;;;;4993310;28;20442;-41
2023/05/12 09:41:23;;;;;;;2.13;1.93;;;17.20;99.90;;;;;;4994529;28;20469;-43
2023/05/12 09:43:51;;;;;;;2.63;2.43;;;17.60;99.90;;;;;;4974375;28;20474;-42
2023/05/12 09:46:17;;;;;;;2.60;2.40;;;17.90;99.90;;;;;;4995183;28;20436;-39
2023/05/12 09:48:46;;;;;;;2.90;2.37;;;18.00;99.90;;;;;;4995278;28;20843;-40
2023/05/12 09:51:17;;;;;;;3.20;2.90;;;18.00;99.90;;;;;;4994242;28;20482;-39
2023/05/12 09:53:43;;;;;;;2.57;2.37;;;17.90;99.90;;;;;;4993856;28;20471;-39
2023/05/12 09:56:11;;;;;;;3.20;2.90;;;18.00;99.90;;;;;;4994174;28;20907;-40
2023/05/12 09:58:40;;;;;;;2.87;2.60;;;18.00;99.90;;;;;;4975970;28;20541;-39
2023/05/12 10:01:07;;;;;;;3.33;2.87;;;18.10;85.20;;;;;;4995131;28;20458;-40
2023/05/12 10:03:34;;;;;;;2.97;2.77;;;18.20;89.50;;;;;;4994816;28;20419;-41
2023/05/12 10:06:02;;;;;;;3.07;2.83;;;18.40;85.80;;;;;;4993249;28;20449;-40
2023/05/12 10:08:41;;;;;;;3.23;2.40;;;18.60;57.60;;;;;;4993206;28;20415;-43
2023/05/12 10:11:07;;;;;;;3.47;3.17;;;18.90;56.70;;;;;;4977119;28;20423;-43
2023/05/12 10:13:33;;;;;;;3.53;2.77;;;19.10;36.40;;;;;;4993217;28;20775;-41
2023/05/12 10:15:59;;;;;;;2.43;2.17;;;19.30;26.30;;;;;;4988997;28;20673;-40
2023/05/12 10:18:25;;;;;;;4.33;2.20;;;19.60;1.00;;;;;;4990708;28;20423;-40
2023/05/12 10:20:52;;;;;;;2.27;2.07;;;19.60;1.00;;;;;;4992433;28;20422;-47
2023/05/12 10:23:19;;;;;;;2.53;2.30;;;19.80;1.00;;;;;;4990624;28;20606;-41
2023/05/12 10:25:44;;;;;;;2.47;2.20;;;20.10;1.00;;;;;;4989766;28;20429;-41
2023/05/12 10:28:11;;;;;;;2.63;2.40;;;20.20;1.00;;;;;;4973768;28;20423;-42
2023/05/12 10:30:38;;;;;;;2.53;2.00;;;20.30;1.00;;;;;;4974661;28;20426;-42
2023/05/12 10:33:04;;;;;;;2.80;2.13;;;20.40;1.00;;;;;;4956388;28;20481;-40
2023/05/12 10:35:34;;;;;;;3.20;2.90;;;20.40;1.00;;;;;;4989310;28;20827;-41
2023/05/12 10:38:10;;;;;;;2.80;2.60;;;20.40;1.00;;;;;;4989437;28;20510;-39
2023/05/12 10:40:49;;;;;;;4.60;2.23;;;20.40;1.00;;;;;;4992533;28;20415;-42
2023/05/12 10:43:21;;;;;;;2.90;2.60;;;20.40;1.00;;;;;;4991823;28;20465;-39
2023/05/12 10:46:26;;;;;;;2.30;2.10;;;20.20;1.00;;;;;;4977357;28;20768;-41
2023/05/12 10:49:07;;;;;;;2.33;2.13;;;20.10;1.00;;;;;;4993910;28;20492;-40
2023/05/12 10:51:54;;;;;;;2.53;2.10;;;19.90;1.00;;;;;;4992085;28;20474;-42
2023/05/12 10:54:24;;;;;;;1.80;1.70;;;19.80;1.00;;;;;;4992003;28;20490;-42
2023/05/12 10:56:50;;;;;;;2.87;2.50;;;19.70;1.00;;;;;;4978171;28;20536;-40
2023/05/12 10:59:19;;;;;;;2.57;2.00;;;19.60;1.00;;;;;;4991496;28;20431;-41
2023/05/12 11:02:01;;;;;;;7.00;2.70;;;19.50;1.00;;;;;;4991955;28;20437;-43
2023/05/12 11:04:52;;;;;;;2.37;2.17;;;19.60;1.00;;;;;;4991679;28;20485;-42
2023/05/12 11:07:25;;;;;;;2.63;2.43;;;19.70;1.00;;;;;;4935523;29;20421;-41
2023/05/12 11:09:51;;;;;;;2.70;2.03;;;19.80;1.00;;;;;;4952147;29;20677;-41
2023/05/12 11:12:17;;;;;;;2.53;2.30;;;19.70;1.00;;;;;;4950762;29;20480;-41
2023/05/12 11:14:43;;;;;;;3.20;2.60;;;19.70;1.00;;;;;;4951818;29;20432;-41
2023/05/12 11:17:09;;;;;;;2.73;2.47;;;19.40;1.00;;;;;;4953676;29;20477;-43
2023/05/12 11:19:35;;;;;;;2.43;2.23;;;19.20;1.00;;;;;;4919586;29;20823;-41
2023/05/12 11:22:11;;;;;;;2.47;2.27;;;19.10;1.00;;;;;;4952636;29;20832;-43
2023/05/12 11:24:38;;;;;;;2.50;2.30;;;19.00;1.00;;;;;;4953426;29;20439;-41
2023/05/12 11:27:05;;;;;;;3.30;2.97;;;19.00;1.00;;;;;;4956263;28;20536;-44
2023/05/12 11:29:31;;;;;;;3.17;2.97;;;19.00;1.00;;;;;;4954671;29;20443;-43
2023/05/12 11:32:00;;;;;;;3.00;2.70;;;18.90;1.00;;;;;;4951764;29;20777;-42
2023/05/12 11:34:26;;;;;;;2.20;2.00;;;18.90;1.00;;;;;;4952929;29;20428;-41
2023/05/12 11:36:54;;;;;;;2.97;2.67;;;19.00;1.00;;;;;;4954060;29;20555;-42
2023/05/12 11:39:22;;;;;;;3.80;3.43;;;19.00;1.00;;;;;;4938470;29;20435;-41
2023/05/12 11:41:49;;;;;;;3.03;2.83;;;19.00;1.00;;;;;;4954325;29;20486;-41
2023/05/12 11:44:16;;;;;;;2.87;2.67;;;19.10;1.00;;;;;;4954627;29;20416;-42
2023/05/12 11:46:54;;;;;;;1.97;1.77;;;19.20;1.00;;;;;;4955368;28;20428;-42
2023/05/12 11:49:20;;;;;;;4.47;3.63;;;19.30;1.00;;;;;;4975233;28;20467;-41
2023/05/12 11:51:46;;;;;;;7.03;6.30;;;19.30;1.00;;;;;;4975690;28;20482;-41
2023/05/12 11:54:11;;;;;;;9.27;8.37;;;19.20;1.00;;;;;;4993554;28;20521;-41
2023/05/12 11:56:37;;;;;;;12.43;11.43;;;19.10;1.00;;;;;;4995719;28;20826;-42
2023/05/12 11:59:03;;;;;;;13.80;12.70;;;19.10;1.00;;;;;;4993119;28;20410;-42
2023/05/12 12:01:29;;;;;;;8.33;7.73;;;19.20;1.00;;;;;;4979962;28;20196;-43
2023/05/12 12:03:55;;;;;;;6.77;6.20;;;19.30;1.00;;;;;;4947809;28;20188;-41
2023/05/12 12:06:23;;;;;;;6.87;6.37;;;19.30;1.00;;;;;;4996523;28;20180;-43
2023/05/12 12:08:50;;;;;;;5.23;4.83;;;19.30;1.00;;;;;;4997143;28;20944;-41
2023/05/12 12:11:20;;;;;;;7.27;5.03;;;19.20;1.00;;;;;;4977728;28;20438;-41
2023/05/12 12:13:49;;;;;;;4.63;4.33;;;18.80;1.00;;;;;;4978329;28;20430;-41
2023/05/12 12:16:15;;;;;;;5.73;5.23;;;18.30;22.40;;;;;;4992806;28;20434;-41
2023/05/12 12:18:40;;;;;;;4.80;4.40;;;18.10;99.90;;;;;;4999069;28;20427;-41
2023/05/12 12:21:06;;;;;;;5.07;4.67;;;17.90;99.90;;;;;;4999435;28;20179;-41
2023/05/12 12:23:32;;;;;;;4.33;4.03;;;17.90;99.90;;;;;;4980514;28;20555;-43
2023/05/12 12:25:57;;;;;;;5.20;4.80;;;18.10;1.00;;;;;;4997159;28;20184;-42
2023/05/12 12:28:23;;;;;;;4.37;4.07;;;18.30;1.00;;;;;;4997160;28;20176;-42
2023/05/12 12:30:49;;;;;;;4.97;4.57;;;18.30;1.00;;;;;;4997567;28;20180;-43
2023/05/12 12:33:15;;;;;;;5.90;5.40;;;18.50;1.00;;;;;;4996709;28;20274;-43
2023/05/12 12:35:40;;;;;;;4.33;4.03;;;18.60;99.90;;;;;;4980192;28;20745;-43
2023/05/12 12:38:07;;;;;;;4.17;3.77;;;18.70;1.00;;;;;;4995068;28;20172;-42
2023/05/12 12:40:33;;;;;;;4.27;3.87;;;18.70;99.90;;;;;;4979530;28;20180;-41
2023/05/12 12:42:59;;;;;;;2.80;2.60;;;18.80;1.00;;;;;;4979200;28;20423;-43
2023/05/12 12:45:25;;;;;;;4.73;3.10;;;18.60;99.90;;;;;;4995326;28;20259;-42
2023/05/12 12:47:53;;;;;;;3.10;2.60;;;18.60;99.90;;;;;;4994658;28;20485;-43